Time;durP1;ratioP1;P1;durP2;ratioP2;P2;SDS_P1;SDS_P2;PMS_P1;PMS_P2;Temp;Humidity;BMP_temperature;BMP_pressure;BME280_temperature;BME280_humidity;BME280_pressure;Samples;Min_cycle;Max_cycle;Signal;HPM_P1;HPM_P2
2022/07/25 00:01:18;;;;;;;7.10;6.40;;;;;;;21.98;82.89;101003.56;5050463;28;20025;-59
2022/07/25 00:03:43;;;;;;;8.93;6.53;;;;;;;21.96;83.88;101008.84;5050216;28;20531;-60
2022/07/25 00:06:09;;;;;;;6.80;6.20;;;;;;;21.95;83.37;100999.19;5049704;28;20044;-59
2022/07/25 00:08:34;;;;;;;6.85;6.25;;;;;;;21.95;83.25;101001.81;5050246;28;20377;-60
2022/07/25 00:11:00;;;;;;;7.32;6.63;;;;;;;21.92;83.51;100997.47;5049915;28;20039;-59
2022/07/25 00:13:25;;;;;;;11.25;6.75;;;;;;;21.93;83.46;100993.03;5050135;28;20021;-59
2022/07/25 00:15:51;;;;;;;7.40;6.40;;;;;;;21.91;82.79;100985.16;5049717;28;20028;-59
2022/07/25 00:18:16;;;;;;;8.13;7.18;;;;;;;21.90;82.44;100974.63;5049628;28;20052;-60
2022/07/25 00:20:41;;;;;;;9.70;7.20;;;;;;;21.90;81.90;100986.06;5050001;28;20053;-60
2022/07/25 00:23:06;;;;;;;8.27;7.53;;;;;;;21.89;82.28;100984.31;5050207;28;20027;-59
2022/07/25 00:25:32;;;;;;;8.05;7.30;;;;;;;21.88;81.40;100981.69;5050236;28;20068;-59
2022/07/25 00:27:57;;;;;;;8.48;7.57;;;;;;;21.88;81.41;100971.13;5049807;28;20728;-58
2022/07/25 00:30:22;;;;;;;7.72;7.03;;;;;;;21.86;81.07;100970.31;5050257;28;20033;-60
2022/07/25 00:32:48;;;;;;;9.38;7.45;;;;;;;21.86;81.06;100965.03;5049905;28;20021;-60
2022/07/25 00:35:13;;;;;;;7.97;7.18;;;;;;;21.85;82.04;100968.56;5049452;28;20060;-59
2022/07/25 00:37:38;;;;;;;9.00;7.80;;;;;;;21.85;81.04;100971.19;5050439;28;20021;-59
2022/07/25 00:40:04;;;;;;;7.82;7.13;;;;;;;21.80;80.99;100958.94;5050215;28;20430;-60
2022/07/25 00:42:29;;;;;;;11.95;7.53;;;;;;;21.78;81.97;100958.06;5049686;28;20504;-59
2022/07/25 00:44:55;;;;;;;8.15;7.45;;;;;;;21.75;81.58;100950.19;5048951;28;20029;-59
2022/07/25 00:47:20;;;;;;;8.05;7.10;;;;;;;21.73;82.55;100946.69;5049453;28;20025;-60
2022/07/25 00:49:46;;;;;;;8.52;7.82;;;;;;;21.69;82.24;100945.00;5049593;28;20040;-59
2022/07/25 00:52:11;;;;;;;7.93;7.22;;;;;;;21.67;82.74;100950.28;5049718;28;20025;-59
2022/07/25 00:54:37;;;;;;;8.40;7.70;;;;;;;21.65;82.98;100948.56;5050003;28;20104;-58
2022/07/25 00:57:02;;;;;;;7.78;7.07;;;;;;;21.62;82.79;100948.59;5049148;28;20320;-59
2022/07/25 00:59:27;;;;;;;7.93;7.15;;;;;;;21.58;82.30;100940.75;5049213;28;20021;-58
2022/07/25 01:01:53;;;;;;;8.40;7.70;;;;;;;21.56;82.57;100942.53;5049441;28;20051;-60
2022/07/25 01:04:18;;;;;;;8.40;7.60;;;;;;;21.52;82.26;100938.16;5049442;28;20025;-59
2022/07/25 01:06:44;;;;;;;9.05;8.23;;;;;;;21.50;81.92;100931.19;5048964;28;20063;-59
2022/07/25 01:09:09;;;;;;;8.70;7.82;;;;;;;21.46;81.89;100933.00;5049283;28;20029;-59
2022/07/25 01:11:35;;;;;;;10.07;7.78;;;;;;;21.42;81.72;100923.38;5049012;28;20037;-59
2022/07/25 01:14:00;;;;;;;8.32;7.43;;;;;;;21.41;82.23;100924.22;5047736;28;20024;-59
2022/07/25 01:16:26;;;;;;;9.32;7.55;;;;;;;21.39;82.99;100924.25;5047893;28;20435;-59
2022/07/25 01:18:51;;;;;;;10.00;8.15;;;;;;;21.37;82.19;100914.66;5048758;28;20041;-60
2022/07/25 01:21:17;;;;;;;8.70;7.18;;;;;;;21.35;81.86;100914.66;5047125;28;20036;-59
2022/07/25 01:23:43;;;;;;;8.30;7.50;;;;;;;21.33;82.01;100912.06;5049126;28;20025;-59
2022/07/25 01:26:08;;;;;;;8.60;7.50;;;;;;;21.30;81.79;100905.94;5048706;28;20107;-58
2022/07/25 01:28:33;;;;;;;8.07;7.28;;;;;;;21.27;81.58;100905.97;5048708;28;20025;-59
2022/07/25 01:30:59;;;;;;;7.53;6.90;;;;;;;21.23;81.65;100894.59;5048724;28;20098;-59
2022/07/25 01:33:24;;;;;;;7.70;7.05;;;;;;;21.21;81.83;100901.63;5048278;28;20086;-59
2022/07/25 01:35:50;;;;;;;7.93;7.22;;;;;;;21.20;82.48;100902.53;5048929;28;20120;-60
2022/07/25 01:38:16;;;;;;;8.27;7.03;;;;;;;21.19;81.79;100903.44;5048664;28;20412;-58
2022/07/25 01:40:42;;;;;;;8.48;7.68;;;;;;;21.15;81.70;100896.44;5048493;28;20025;-59
2022/07/25 01:43:07;;;;;;;7.88;7.18;;;;;;;21.14;81.93;100886.81;5048726;28;20035;-60
2022/07/25 01:45:33;;;;;;;10.10;7.72;;;;;;;21.13;81.50;100887.69;5048312;28;20131;-58
2022/07/25 01:47:58;;;;;;;8.35;7.65;;;;;;;21.11;81.45;100893.84;5048526;28;20020;-59
2022/07/25 01:50:24;;;;;;;8.10;7.40;;;;;;;21.10;81.84;100886.81;5048424;28;20040;-59
2022/07/25 01:52:49;;;;;;;9.43;8.52;;;;;;;21.06;81.03;100887.78;5048239;28;20028;-60
2022/07/25 01:55:15;;;;;;;8.18;7.47;;;;;;;21.04;81.18;100872.84;5048540;28;20025;-59
2022/07/25 01:57:40;;;;;;;7.80;7.10;;;;;;;21.03;80.80;100866.72;5048356;28;20021;-59
2022/07/25 02:00:08;;;;;;;7.90;7.20;;;;;;;21.04;80.95;100862.31;5047667;28;20055;-59
2022/07/25 02:02:33;;;;;;;8.50;7.60;;;;;;;21.02;80.56;100859.72;5034390;28;20025;-59
2022/07/25 02:04:59;;;;;;;8.05;7.45;;;;;;;21.01;80.47;100857.09;5036261;28;20029;-59
2022/07/25 02:07:24;;;;;;;7.72;6.93;;;;;;;21.01;80.44;100860.63;5045911;28;20124;-58
2022/07/25 02:09:49;;;;;;;7.47;6.78;;;;;;;20.98;80.56;100858.88;5048260;28;20165;-59
2022/07/25 02:12:15;;;;;;;8.52;7.72;;;;;;;20.99;80.23;100854.50;5047847;28;20025;-59
2022/07/25 02:14:40;;;;;;;8.65;7.75;;;;;;;20.99;80.09;100854.50;5048300;28;20104;-59
2022/07/25 02:17:05;;;;;;;8.10;7.30;;;;;;;20.99;80.18;100849.22;5047880;28;20025;-58
2022/07/25 02:19:31;;;;;;;8.02;7.22;;;;;;;20.96;80.39;100851.88;5047238;28;20043;-59
2022/07/25 02:21:56;;;;;;;7.57;6.88;;;;;;;20.97;80.32;100851.00;5047767;28;20044;-59
2022/07/25 02:24:22;;;;;;;7.55;6.85;;;;;;;20.96;80.25;100846.59;5047924;28;20308;-58
2022/07/25 02:26:47;;;;;;;7.28;6.53;;;;;;;20.95;80.27;100850.13;5047695;28;20075;-59
2022/07/25 02:29:12;;;;;;;8.48;7.57;;;;;;;20.94;80.35;100848.38;5047164;28;20020;-59
2022/07/25 02:31:38;;;;;;;8.93;7.43;;;;;;;20.94;80.24;100848.38;5047598;28;20076;-59
2022/07/25 02:34:03;;;;;;;7.22;6.55;;;;;;;20.91;80.47;100848.38;5047756;28;20025;-59
2022/07/25 02:36:28;;;;;;;8.57;7.88;;;;;;;20.90;80.91;100838.75;5047758;28;20032;-59
2022/07/25 02:38:54;;;;;;;8.30;7.50;;;;;;;20.86;81.05;100833.53;5047717;28;20570;-59
2022/07/25 02:41:19;;;;;;;8.02;7.32;;;;;;;20.84;80.94;100829.16;5047562;28;20104;-59
2022/07/25 02:43:45;;;;;;;8.70;7.90;;;;;;;20.82;80.86;100831.81;5046941;28;20028;-59
2022/07/25 02:46:10;;;;;;;15.90;8.43;;;;;;;20.82;80.47;100829.19;5047956;28;20103;-59
2022/07/25 02:48:35;;;;;;;7.43;6.82;;;;;;;20.81;80.30;100824.81;5047122;28;20056;-59
2022/07/25 02:51:01;;;;;;;7.68;7.05;;;;;;;20.81;80.66;100826.56;5047268;28;20386;-59
2022/07/25 02:53:26;;;;;;;6.93;6.32;;;;;;;20.79;81.06;100823.94;5047422;28;20040;-59
2022/07/25 02:55:51;;;;;;;7.80;7.20;;;;;;;20.78;81.27;100821.34;5047349;28;20104;-59
2022/07/25 02:58:16;;;;;;;8.18;7.03;;;;;;;20.74;80.96;100821.34;5047446;28;20492;-59
2022/07/25 03:00:43;;;;;;;7.85;7.15;;;;;;;20.73;81.30;100824.88;5046902;28;20036;-59
2022/07/25 03:03:08;;;;;;;7.18;6.57;;;;;;;20.72;80.83;100815.22;5047301;28;20036;-59
2022/07/25 03:05:34;;;;;;;8.10;7.35;;;;;;;20.70;80.43;100816.16;5047568;28;20025;-59
2022/07/25 03:07:59;;;;;;;7.80;7.03;;;;;;;20.67;80.52;100819.66;5047123;28;20013;-59
2022/07/25 03:10:24;;;;;;;7.97;7.00;;;;;;;20.64;80.80;100817.06;5047362;28;20318;-59
2022/07/25 03:12:49;;;;;;;7.68;6.85;;;;;;;20.61;80.88;100807.47;5046942;28;20483;-60
2022/07/25 03:15:15;;;;;;;7.93;7.25;;;;;;;20.57;81.12;100797.84;5047443;28;20025;-59
2022/07/25 03:17:40;;;;;;;7.35;6.75;;;;;;;20.57;80.56;100792.59;5046913;28;20520;-59
2022/07/25 03:20:07;;;;;;;7.68;6.97;;;;;;;20.57;81.02;100783.81;5047684;28;20044;-59
2022/07/25 03:22:33;;;;;;;7.93;7.05;;;;;;;20.57;80.85;100789.97;5047122;28;20036;-59
2022/07/25 03:24:58;;;;;;;7.50;6.80;;;;;;;20.56;80.04;100792.63;5046732;28;20035;-59
2022/07/25 03:27:23;;;;;;;8.07;7.28;;;;;;;20.55;80.08;100794.38;5046988;28;20048;-59
2022/07/25 03:29:49;;;;;;;7.03;6.43;;;;;;;20.54;79.81;100799.66;5048868;28;20438;-59
2022/07/25 03:32:14;;;;;;;7.20;6.50;;;;;;;20.51;79.91;100790.00;5050909;28;20040;-59
2022/07/25 03:34:41;;;;;;;7.65;6.95;;;;;;;20.50;80.24;100796.19;5050874;28;20039;-58
2022/07/25 03:37:07;;;;;;;7.57;6.78;;;;;;;20.46;80.13;100782.19;5049950;28;20020;-59
2022/07/25 03:39:32;;;;;;;7.65;6.90;;;;;;;20.46;79.89;100786.56;5049185;28;20025;-59
2022/07/25 03:41:57;;;;;;;8.15;7.32;;;;;;;20.47;79.63;100796.22;5048710;28;20027;-59
2022/07/25 03:44:24;;;;;;;8.13;7.43;;;;;;;20.45;79.37;100788.34;5050029;28;20025;-59
2022/07/25 03:46:50;;;;;;;8.18;6.78;;;;;;;20.47;79.16;100777.78;5048893;28;20420;-59
2022/07/25 03:49:15;;;;;;;6.63;6.10;;;;;;;20.46;79.03;100781.28;5049872;28;20025;-60
2022/07/25 03:51:41;;;;;;;7.43;6.80;;;;;;;20.48;78.55;100782.16;5050577;28;20065;-59
2022/07/25 03:54:07;;;;;;;7.25;6.55;;;;;;;20.50;77.66;100777.75;5050673;28;20016;-59
2022/07/25 03:56:44;;;;;;;7.47;6.75;;;;;;;20.51;77.50;100777.72;5050365;28;20357;-59
2022/07/25 03:59:12;;;;;;;7.47;6.88;;;;;;;20.55;76.89;100781.19;5051052;28;20036;-59
2022/07/25 04:01:37;;;;;;;7.43;6.72;;;;;;;20.58;76.72;100790.84;5050049;28;20029;-59
2022/07/25 04:04:03;;;;;;;7.50;6.53;;;;;;;20.63;76.52;100783.75;5050273;28;20074;-59
2022/07/25 04:06:29;;;;;;;7.25;6.57;;;;;;;20.67;76.85;100769.66;5050545;28;20033;-59
2022/07/25 04:08:55;;;;;;;6.57;6.05;;;;;;;20.69;77.41;100767.88;5050023;28;20465;-60
2022/07/25 04:11:21;;;;;;;7.30;6.57;;;;;;;20.72;78.18;100767.00;5050019;28;20028;-60
2022/07/25 04:13:46;;;;;;;6.72;6.10;;;;;;;20.72;76.87;100761.72;5050259;28;20040;-60
2022/07/25 04:16:12;;;;;;;6.90;6.25;;;;;;;20.74;76.34;100765.22;5050298;28;20028;-59
2022/07/25 04:18:37;;;;;;;6.70;5.85;;;;;;;20.74;76.85;100771.34;5050553;28;20520;-59
2022/07/25 04:21:03;;;;;;;6.72;5.78;;;;;;;20.78;74.99;100766.06;5050517;28;20108;-59
2022/07/25 04:23:29;;;;;;;6.15;5.55;;;;;;;20.80;75.31;100773.03;5049530;28;20017;-59
2022/07/25 04:25:55;;;;;;;7.35;6.60;;;;;;;20.85;76.58;100768.56;5050015;28;20025;-60
2022/07/25 04:28:20;;;;;;;7.07;6.05;;;;;;;20.86;75.38;100772.97;5050424;28;20021;-59
2022/07/25 04:30:46;;;;;;;6.15;5.57;;;;;;;20.89;74.46;100766.78;5050093;28;20037;-60
2022/07/25 04:33:12;;;;;;;7.80;6.03;;;;;;;20.92;74.42;100768.50;5050266;28;20025;-59
2022/07/25 04:35:37;;;;;;;6.18;5.57;;;;;;;20.93;73.68;100759.72;5050017;28;20544;-59
2022/07/25 04:38:03;;;;;;;6.15;5.65;;;;;;;20.96;72.95;100762.31;5049565;28;20025;-60
2022/07/25 04:40:28;;;;;;;5.90;5.40;;;;;;;20.98;73.20;100765.81;5049144;28;20020;-59
2022/07/25 04:42:53;;;;;;;5.57;5.18;;;;;;;21.01;72.59;100776.34;5049709;28;20547;-59
2022/07/25 04:45:18;;;;;;;5.88;5.32;;;;;;;21.05;72.04;100771.88;5050045;28;20021;-59
2022/07/25 04:47:44;;;;;;;7.10;5.38;;;;;;;21.08;72.02;100774.50;5049816;28;20044;-59
2022/07/25 04:50:09;;;;;;;5.55;5.05;;;;;;;21.11;71.92;100764.78;5049816;28;20468;-59
2022/07/25 04:52:35;;;;;;;7.30;5.82;;;;;;;21.15;71.66;100762.97;5049608;28;20090;-59
2022/07/25 04:55:00;;;;;;;7.18;5.45;;;;;;;21.20;71.84;100760.28;5049909;28;20507;-59
2022/07/25 04:57:25;;;;;;;5.55;5.03;;;;;;;21.23;71.27;100754.94;5048818;28;20115;-59
2022/07/25 04:59:51;;;;;;;6.72;5.35;;;;;;;21.24;71.92;100749.66;5040967;28;20040;-59
2022/07/25 05:02:16;;;;;;;6.00;5.43;;;;;;;21.27;71.66;100754.03;5048062;28;20021;-59
2022/07/25 05:04:41;;;;;;;6.95;5.55;;;;;;;21.31;71.55;100761.00;5049646;28;20475;-60
2022/07/25 05:07:08;;;;;;;6.30;5.68;;;;;;;21.33;71.72;100760.97;5049116;28;20032;-59
2022/07/25 05:09:33;;;;;;;5.90;5.32;;;;;;;21.35;72.31;100756.56;5042040;28;20485;-59
2022/07/25 05:11:59;;;;;;;7.63;5.15;;;;;;;21.37;71.70;100760.06;5042910;28;20032;-60
2022/07/25 05:14:24;;;;;;;5.45;4.95;;;;;;;21.41;71.55;100758.22;5049149;28;20492;-59
2022/07/25 05:16:49;;;;;;;6.82;5.18;;;;;;;21.42;71.90;100757.34;5048680;28;20036;-59
2022/07/25 05:19:15;;;;;;;5.63;5.13;;;;;;;21.46;71.13;100759.03;5048383;28;20455;-60
2022/07/25 05:21:40;;;;;;;7.88;5.80;;;;;;;21.50;71.46;100770.41;5048243;28;20276;-59
2022/07/25 05:24:06;;;;;;;6.63;4.97;;;;;;;21.56;71.62;100768.53;5048900;28;20078;-59
2022/07/25 05:26:31;;;;;;;6.47;5.63;;;;;;;21.60;71.11;100767.59;5048239;28;20032;-58
2022/07/25 05:28:57;;;;;;;6.13;5.32;;;;;;;21.67;72.12;100767.50;5049413;28;20029;-59
2022/07/25 05:31:22;;;;;;;5.88;5.28;;;;;;;21.71;71.26;100766.56;5048949;28;20477;-59
2022/07/25 05:33:48;;;;;;;6.60;5.07;;;;;;;21.74;70.78;100763.88;5048611;28;20030;-59
2022/07/25 05:36:14;;;;;;;6.20;5.55;;;;;;;21.77;70.63;100769.09;5043645;28;20033;-59
2022/07/25 05:38:39;;;;;;;5.72;5.15;;;;;;;21.78;70.64;100760.31;5048384;28;20376;-60
2022/07/25 05:41:05;;;;;;;6.05;5.45;;;;;;;21.80;70.90;100763.78;5048937;28;20063;-59
2022/07/25 05:43:31;;;;;;;5.88;5.28;;;;;;;21.81;70.79;100764.69;5048540;28;20029;-59
2022/07/25 05:46:01;;;;;;;6.50;5.90;;;;;;;21.85;71.31;100771.66;5040610;28;20484;-59
2022/07/25 05:48:26;;;;;;;6.28;5.75;;;;;;;21.87;71.25;100768.97;5030724;28;20488;-59
2022/07/25 05:50:52;;;;;;;6.28;5.65;;;;;;;21.86;71.16;100767.25;5028660;28;20033;-59
2022/07/25 05:53:17;;;;;;;7.22;5.45;;;;;;;21.86;71.54;100778.66;5041822;28;20021;-59
2022/07/25 05:55:42;;;;;;;7.13;5.63;;;;;;;21.87;71.73;100764.59;5048656;28;20373;-59
2022/07/25 05:58:08;;;;;;;6.28;5.68;;;;;;;21.80;71.32;100773.50;5048633;28;20021;-59
2022/07/25 06:00:33;;;;;;;6.75;5.15;;;;;;;21.81;71.85;100770.81;5048169;28;20048;-59
2022/07/25 06:02:59;;;;;;;8.25;5.35;;;;;;;21.81;71.79;100781.38;5048289;28;20051;-59
2022/07/25 06:05:24;;;;;;;6.30;5.15;;;;;;;21.82;71.71;100783.09;5048527;28;20028;-59
2022/07/25 06:07:50;;;;;;;5.95;5.53;;;;;;;21.86;72.75;100793.63;5047764;28;20020;-59
2022/07/25 06:10:15;;;;;;;6.13;5.55;;;;;;;21.85;71.87;100791.88;5048038;28;20036;-59
2022/07/25 06:12:40;;;;;;;6.20;5.60;;;;;;;21.85;72.15;100795.38;5039706;28;20071;-59
2022/07/25 06:15:06;;;;;;;7.28;5.55;;;;;;;21.87;71.91;100790.97;5039448;28;20025;-59
2022/07/25 06:17:31;;;;;;;8.90;6.80;;;;;;;21.88;71.73;100791.81;5046556;28;20056;-59
2022/07/25 06:19:56;;;;;;;6.80;6.18;;;;;;;21.91;71.78;100794.41;5047617;28;20029;-59
2022/07/25 06:22:22;;;;;;;7.28;6.63;;;;;;;21.90;71.85;100792.66;5047202;28;20456;-59
2022/07/25 06:24:47;;;;;;;8.15;6.32;;;;;;;21.91;72.42;100786.50;5047727;28;20021;-59
2022/07/25 06:27:12;;;;;;;7.10;5.88;;;;;;;21.90;72.79;100792.66;5048350;28;20671;-59
2022/07/25 06:29:38;;;;;;;6.57;6.00;;;;;;;21.89;73.63;100798.84;5046808;28;20112;-59
2022/07/25 06:32:03;;;;;;;6.88;6.13;;;;;;;21.90;74.17;100795.28;5046085;28;20029;-59
2022/07/25 06:34:29;;;;;;;8.35;6.57;;;;;;;21.92;73.43;100796.16;5046391;28;20025;-59
2022/07/25 06:36:56;;;;;;;7.47;6.38;;;;;;;21.91;72.86;100807.59;5045974;28;20021;-59
2022/07/25 06:39:24;;;;;;;7.60;6.90;;;;;;;21.93;73.12;100801.41;5046552;28;20313;-59
2022/07/25 06:41:50;;;;;;;7.85;6.90;;;;;;;21.91;72.69;100802.34;5046315;28;20111;-59
2022/07/25 06:44:15;;;;;;;6.97;6.38;;;;;;;21.89;72.77;100806.75;5047170;28;20558;-59
2022/07/25 06:46:40;;;;;;;6.45;5.85;;;;;;;21.86;72.66;100793.63;5046280;28;20107;-59
2022/07/25 06:49:06;;;;;;;6.65;5.93;;;;;;;21.88;72.89;100802.34;5044949;28;20017;-58
2022/07/25 06:51:31;;;;;;;7.80;5.93;;;;;;;21.85;73.12;100805.06;5046151;28;20044;-60
2022/07/25 06:53:57;;;;;;;6.90;6.30;;;;;;;21.86;73.49;100804.19;5046430;28;20499;-59
2022/07/25 06:56:22;;;;;;;5.78;5.28;;;;;;;21.90;74.21;100803.22;5047467;28;20025;-59
2022/07/25 06:58:47;;;;;;;6.20;5.60;;;;;;;21.91;72.69;100803.19;5047269;28;20535;-59
2022/07/25 07:01:13;;;;;;;6.28;5.68;;;;;;;21.94;73.08;100797.00;5047474;28;20028;-59
2022/07/25 07:03:40;;;;;;;6.88;6.18;;;;;;;21.95;73.18;100801.38;5047545;28;20035;-59
2022/07/25 07:06:07;;;;;;;6.10;5.30;;;;;;;21.93;73.52;100796.13;5047660;28;20075;-59
2022/07/25 07:08:33;;;;;;;7.15;5.93;;;;;;;21.93;73.40;100801.41;5047535;28;20068;-59
2022/07/25 07:10:58;;;;;;;6.60;6.00;;;;;;;21.95;73.67;100796.09;5047353;28;20067;-59
2022/07/25 07:13:24;;;;;;;5.95;5.20;;;;;;;21.95;73.17;100798.72;5047462;28;20032;-59
2022/07/25 07:15:50;;;;;;;6.22;5.70;;;;;;;21.95;73.56;100796.09;5047633;28;20021;-59
2022/07/25 07:18:16;;;;;;;6.97;5.60;;;;;;;21.94;73.34;100797.00;5047419;28;20135;-59
2022/07/25 07:20:42;;;;;;;5.90;5.30;;;;;;;21.93;74.04;100797.88;5045791;28;20060;-59
2022/07/25 07:23:07;;;;;;;6.20;5.55;;;;;;;21.94;74.25;100799.63;5047637;28;20057;-60
2022/07/25 07:25:33;;;;;;;7.30;5.47;;;;;;;21.98;74.63;100806.63;5047667;28;20096;-60
2022/07/25 07:27:58;;;;;;;6.25;5.38;;;;;;;22.01;74.49;100790.72;5046991;28;20515;-59
2022/07/25 07:30:24;;;;;;;6.80;5.47;;;;;;;22.06;75.03;100795.91;5047513;28;20043;-59
2022/07/25 07:32:49;;;;;;;6.07;5.60;;;;;;;22.14;75.24;100796.66;5047411;28;20097;-59
2022/07/25 07:35:15;;;;;;;9.63;5.55;;;;;;;22.14;75.36;100794.03;5046835;28;20032;-59
2022/07/25 07:37:43;;;;;;;6.00;5.28;;;;;;;22.26;77.29;100798.22;5047453;28;20029;-59
2022/07/25 07:40:09;;;;;;;6.78;4.57;;;;;;;22.36;75.60;100803.34;5047184;28;20396;-58
2022/07/25 07:42:42;;;;;;;5.57;4.80;;;;;;;22.39;75.53;100803.28;5047159;28;20104;-59
2022/07/25 07:45:24;;;;;;;7.82;4.28;;;;;;;22.28;75.40;100806.09;5046574;28;20074;-59
2022/07/25 07:47:51;;;;;;;5.25;3.75;;;;;;;22.28;75.96;100801.69;5046953;28;20025;-59
2022/07/25 07:50:19;;;;;;;4.28;3.88;;;;;;;22.27;76.91;100802.59;5046032;28;20064;-59
2022/07/25 07:52:45;;;;;;;4.63;3.20;;;;;;;22.25;76.66;100814.09;5047201;28;20472;-59
2022/07/25 07:57:55;;;;;;;3.15;2.72;;;;;;;22.38;77.63;100806.81;5046945;28;20087;-58
2022/07/25 08:00:22;;;;;;;4.82;3.38;;;;;;;22.60;77.57;100815.19;5047062;28;20450;-59
2022/07/25 08:02:50;;;;;;;4.70;2.90;;;;;;;22.84;77.60;100809.50;5047060;28;20028;-60
2022/07/25 08:05:25;;;;;;;3.92;2.33;;;;;;;23.02;75.14;100814.44;5047409;28;20029;-59
2022/07/25 08:07:52;;;;;;;4.63;1.85;;;;;;;23.18;74.16;100813.22;5047153;28;20025;-60
2022/07/25 08:10:22;;;;;;;3.05;2.00;;;;;;;23.29;75.73;100815.63;5046767;28;20033;-58
2022/07/25 08:12:48;;;;;;;6.22;1.95;;;;;;;23.33;75.89;100810.22;5047241;28;20128;-59
2022/07/25 08:15:15;;;;;;;5.43;2.40;;;;;;;23.38;75.82;100815.44;5048007;28;20164;-59
2022/07/25 08:17:40;;;;;;;3.55;2.03;;;;;;;23.56;76.02;100813.31;5049941;28;20424;-59
2022/07/25 08:20:07;;;;;;;2.80;1.88;;;;;;;23.93;74.09;100817.72;5050609;28;20102;-59
2022/07/25 08:22:46;;;;;;;3.83;1.67;;;;;;;24.46;73.79;100816.41;5050164;28;20025;-59
2022/07/25 08:25:16;;;;;;;3.08;1.33;;;;;;;24.85;72.75;100817.13;5050233;28;20028;-59
2022/07/25 08:27:43;;;;;;;3.15;1.83;;;;;;;24.90;69.36;100814.31;5050349;28;20371;-60
2022/07/25 08:30:11;;;;;;;4.60;1.77;;;;;;;24.85;69.87;100811.81;5049911;28;20029;-59
2022/07/25 08:33:08;;;;;;;4.70;1.73;;;;;;;24.91;69.92;100816.09;5050841;28;20190;-59
2022/07/25 08:35:34;;;;;;;4.15;1.55;;;;;;;24.92;69.41;100820.44;5041682;28;20488;-58
2022/07/25 08:38:00;;;;;;;4.25;1.65;;;;;;;24.98;70.67;100825.63;5049492;28;20038;-59
2022/07/25 08:40:27;;;;;;;6.00;1.20;;;;;;;25.05;68.76;100823.66;5050642;28;20056;-59
2022/07/25 08:42:57;;;;;;;3.83;1.35;;;;;;;25.13;68.45;100831.41;5050064;28;20546;-59
2022/07/25 08:45:24;;;;;;;4.38;1.10;;;;;;;25.48;67.19;100825.91;5049927;28;20644;-59
2022/07/25 08:47:53;;;;;;;1.73;0.93;;;;;;;25.85;67.37;100830.06;5050179;28;20071;-59
2022/07/25 08:50:22;;;;;;;4.88;1.10;;;;;;;26.04;66.15;100825.94;5049622;28;20075;-59
2022/07/25 08:52:49;;;;;;;2.75;1.30;;;;;;;26.28;64.30;100816.31;5050219;28;20079;-60
2022/07/25 08:55:18;;;;;;;3.38;1.58;;;;;;;26.37;64.20;100816.00;5050075;28;20029;-59
2022/07/25 08:57:45;;;;;;;5.18;1.20;;;;;;;26.50;63.22;100810.25;5050037;28;20048;-60
2022/07/25 09:00:15;;;;;;;2.05;1.15;;;;;;;26.64;62.28;100822.19;5049884;28;20032;-60
2022/07/25 09:02:40;;;;;;;4.63;1.10;;;;;;;26.80;62.06;100818.03;5049573;28;20102;-60
2022/07/25 09:05:07;;;;;;;3.05;1.05;;;;;;;27.01;62.26;100825.25;5049813;28;20056;-60
2022/07/25 09:07:43;;;;;;;2.95;1.20;;;;;;;27.02;62.44;100827.84;5049698;28;20039;-60
2022/07/25 09:10:20;;;;;;;1.80;0.85;;;;;;;27.07;62.80;100835.69;5049542;28;20021;-60
2022/07/25 09:12:53;;;;;;;4.63;1.25;;;;;;;27.23;61.96;100824.47;5049732;28;20127;-60
2022/07/25 09:15:26;;;;;;;4.93;1.20;;;;;;;27.33;61.26;100834.69;5048851;28;20032;-60
2022/07/25 09:17:52;;;;;;;2.13;0.93;;;;;;;27.39;59.45;100836.25;5049277;28;20049;-60
2022/07/25 09:20:18;;;;;;;4.88;1.73;;;;;;;27.33;59.48;100831.16;5048831;28;20112;-59
2022/07/25 09:22:43;;;;;;;4.78;1.80;;;;;;;27.20;59.95;100831.63;5049366;28;20111;-60
2022/07/25 09:25:27;;;;;;;5.55;1.45;;;;;;;27.17;60.83;100834.41;5049212;28;20053;-59
2022/07/25 09:27:52;;;;;;;4.63;1.58;;;;;;;27.24;61.67;100843.03;5048725;28;20021;-60
2022/07/25 09:30:18;;;;;;;4.57;1.65;;;;;;;27.21;62.50;100845.81;5048539;28;20402;-59
2022/07/25 09:32:43;;;;;;;4.20;1.58;;;;;;;27.24;61.18;100843.03;5049374;28;20112;-59
2022/07/25 09:35:09;;;;;;;4.43;1.33;;;;;;;27.29;60.68;100851.69;5049566;28;20043;-59
2022/07/25 09:37:34;;;;;;;3.70;1.48;;;;;;;27.23;60.12;100859.91;5049026;28;20052;-60
2022/07/25 09:39:59;;;;;;;2.67;1.42;;;;;;;27.08;59.73;100854.25;5049173;28;20025;-59
2022/07/25 09:42:28;;;;;;;7.75;2.05;;;;;;;27.12;59.39;100862.09;5048978;28;20079;-60
2022/07/25 09:44:56;;;;;;;3.97;1.10;;;;;;;27.14;59.74;100866.44;5046866;28;20076;-59
2022/07/25 09:47:21;;;;;;;4.85;1.63;;;;;;;27.14;57.97;100868.22;5048801;28;20025;-59
2022/07/25 09:49:47;;;;;;;4.15;1.50;;;;;;;27.33;56.78;100861.28;5048845;28;20584;-60
2022/07/25 09:52:12;;;;;;;3.28;1.63;;;;;;;27.53;56.71;100872.94;5048678;28;20029;-60
2022/07/25 09:54:39;;;;;;;3.47;1.27;;;;;;;27.73;55.83;100870.44;5048789;28;20021;-60
2022/07/25 09:57:05;;;;;;;3.20;1.50;;;;;;;27.91;54.18;100866.16;5048253;28;20040;-60
2022/07/25 09:59:33;;;;;;;4.65;1.83;;;;;;;27.99;55.01;100868.53;5048958;28;20021;-58
2022/07/25 10:02:12;;;;;;;3.05;1.40;;;;;;;28.04;54.61;100870.06;5048829;28;20029;-59
2022/07/25 10:05:07;;;;;;;4.80;1.60;;;;;;;27.90;54.87;100867.13;5048562;28;20029;-59
2022/07/25 10:07:37;;;;;;;4.30;1.80;;;;;;;28.05;55.81;100870.91;5048298;28;20074;-60
2022/07/25 10:10:03;;;;;;;3.67;1.50;;;;;;;28.14;56.14;100870.53;5048508;28;20040;-60
2022/07/25 10:12:29;;;;;;;5.35;1.83;;;;;;;27.89;54.94;100876.00;5048334;28;20116;-60
2022/07/25 10:15:09;;;;;;;2.75;1.60;;;;;;;27.67;55.07;100872.38;5048551;28;20096;-60
2022/07/25 10:17:36;;;;;;;5.38;2.05;;;;;;;27.70;56.88;100887.38;5048524;28;20051;-60
2022/07/25 10:20:05;;;;;;;3.35;1.40;;;;;;;27.56;55.38;100874.63;5048406;28;20104;-59
2022/07/25 10:22:38;;;;;;;3.28;1.45;;;;;;;27.63;55.07;100885.88;5048417;28;20514;-60
2022/07/25 10:25:16;;;;;;;5.15;1.73;;;;;;;27.72;55.01;100876.72;5048317;28;20017;-59
2022/07/25 10:27:49;;;;;;;3.10;1.50;;;;;;;27.87;54.84;100869.88;5048155;28;20208;-59
2022/07/25 10:30:22;;;;;;;3.83;1.55;;;;;;;27.91;53.25;100864.38;5034642;28;20040;-60
2022/07/25 10:33:17;;;;;;;4.05;1.70;;;;;;;27.93;53.49;100870.53;5048158;28;20040;-59
2022/07/25 10:35:44;;;;;;;3.97;1.50;;;;;;;27.60;54.24;100870.91;5043148;28;20037;-60
2022/07/25 10:38:09;;;;;;;4.47;1.92;;;;;;;27.35;54.17;100877.19;5047220;28;20040;-60
2022/07/25 10:40:42;;;;;;;4.80;1.40;;;;;;;27.30;55.22;100876.50;5047740;28;20451;-60
2022/07/25 10:43:17;;;;;;;5.13;1.85;;;;;;;27.32;54.67;100888.81;5047921;28;20052;-60
2022/07/25 10:45:49;;;;;;;4.45;1.70;;;;;;;27.26;56.03;100883.72;5047747;28;20429;-59
2022/07/25 10:48:31;;;;;;;3.85;1.30;;;;;;;27.24;54.26;100879.38;5047465;28;20465;-59
2022/07/25 10:51:04;;;;;;;4.10;1.63;;;;;;;27.18;55.27;100880.50;5048216;28;20033;-60
2022/07/25 10:53:33;;;;;;;3.67;1.40;;;;;;;27.30;53.86;100869.38;5048109;28;20025;-59
2022/07/25 10:56:19;;;;;;;5.00;1.40;;;;;;;27.60;52.65;100880.66;5047618;28;20381;-60
2022/07/25 10:58:56;;;;;;;4.07;1.38;;;;;;;27.67;53.62;100896.34;5047827;28;20082;-60
2022/07/25 11:01:27;;;;;;;3.50;1.38;;;;;;;27.54;52.22;100901.25;5047914;28;20029;-60
2022/07/25 11:03:55;;;;;;;3.75;1.50;;;;;;;27.48;52.77;100900.66;5047297;28;20031;-60
2022/07/25 11:06:37;;;;;;;3.40;1.65;;;;;;;27.47;54.32;100893.59;5046922;28;20033;-60
2022/07/25 11:09:24;;;;;;;6.38;1.70;;;;;;;27.42;53.04;100893.75;5047098;28;20067;-60
2022/07/25 11:11:51;;;;;;;3.38;1.55;;;;;;;27.29;52.68;100899.56;5047191;28;20409;-60
2022/07/25 11:14:19;;;;;;;4.05;1.63;;;;;;;27.24;54.23;100896.19;5047984;28;20299;-60
2022/07/25 11:16:46;;;;;;;2.47;2.03;;;;;;;27.17;54.21;100900.88;5047234;28;20039;-60
2022/07/25 11:19:19;;;;;;;4.18;1.70;;;;;;;27.20;55.43;100905.25;5046718;28;20057;-60
2022/07/25 11:21:54;;;;;;;3.58;2.13;;;;;;;27.21;54.38;100912.28;5046975;28;20041;-60
2022/07/25 11:24:20;;;;;;;5.60;2.65;;;;;;;27.33;52.45;100908.28;5047246;28;20029;-60
2022/07/25 11:26:51;;;;;;;3.63;2.30;;;;;;;27.45;52.30;100909.63;5047611;28;20353;-60